Tropical Cyclones
[Index]
Main Index Home Page Stock Weather Photos Extreme Storms Discussion Storm News and Storm Chasing Reports Tropical Cyclones / Hurricanes / Typhoons Weather Data and Links Wild Fires / Bushfires Weather Observation Techniques Weather Picture Catalogue Tornado Pictures and Reports Stock Video Footage and DVDs for sale
Season 1985-1986 Tropical Cyclone JEFOTRA Track Map
Season 1985-1986 Summaries: [BoM-AU] [JTWC-AU] [JTWC-SIO] [JTWC-SPAC] [JTWC-SH]
<<- Previous TC | JTWC 1985-1986 Season | Next TC ->>

click for intensity scale information  Lat/long Grid: Show Hide

 Date Labels: Show Hide

Joint Typhoon Warning Centre Cyclone Data

Name: JEFOTRA

25 Mar 1986 12:00 UTC to 02 Apr 1986 00:00 UTC

    date/time    lat    long     hPa   cat  kts
1986-03-25 12   13.0    91.1                  30          
1986-03-25 18   13.2    89.4                  30          
1986-03-26 00   13.3    87.9                  35          
1986-03-26 06   13.3    86.6            1     40          
1986-03-26 12   13.3    85.3            1     45          
1986-03-26 18   13.4    83.8            1     45          
1986-03-27 00   13.5    82.3            1     50          
1986-03-27 06   13.7    80.8            1     50          
1986-03-27 12   13.9    79.2            2     55          
1986-03-27 18   14.1    77.7            2     55          
1986-03-28 00   14.4    76.1            2     60          
1986-03-28 06   14.9    74.7            2     65          
1986-03-28 12   15.6    73.6            3     75          
1986-03-28 18   16.3    72.7            3     80          
1986-03-29 00   17.0    71.9            3     90          
1986-03-29 06   17.5    70.9            3     95          
1986-03-29 12   17.9    70.0            4    105          
1986-03-29 18   18.4    69.2            4    105          
1986-03-30 00   18.9    68.4            4    100          
1986-03-30 06   19.4    67.6            3     95          
1986-03-30 12   19.9    66.7            3     90          
1986-03-30 18   20.4    65.9            3     85          
1986-03-31 00   21.0    65.0            3     80          
1986-03-31 06   21.6    64.2            3     75          
1986-03-31 12   22.3    63.3            2     70          
1986-03-31 18   22.8    62.4            2     65          
1986-04-01 00   23.3    61.4            2     55          
1986-04-01 06   23.7    60.1            1     50          
1986-04-01 12   24.1    58.8            1     45          
1986-04-01 18   24.5    58.0            1     40          
1986-04-02 00   25.0    57.5            1     40          
Winds are 1-min average.

Tropical cyclone tracks developed by Michael Bath using data from the Joint Typhoon Warning Centre Best Tracks and Google Maps.


[Australian Severe Weather index] [Copyright Notice] [Email Contacts] [Search This Site] [Privacy Policy]
Document: tropical_cyclone_jefotra.htm Updated: 18 September 2016